sensor_id;sensor_type;location;lat;lon;timestamp;P1;durP1;ratioP1;P2;durP2;ratioP2
41663;SDS011;27353;50.906;7.248;2022-08-19T00:01:21;25.20;;;18.55;;
41663;SDS011;27353;50.906;7.248;2022-08-19T00:03:47;20.73;;;18.27;;
41663;SDS011;27353;50.906;7.248;2022-08-19T00:06:13;21.13;;;17.77;;
41663;SDS011;27353;50.906;7.248;2022-08-19T00:08:39;23.50;;;20.15;;
41663;SDS011;27353;50.906;7.248;2022-08-19T00:11:05;27.40;;;20.77;;
41663;SDS011;27353;50.906;7.248;2022-08-19T00:13:32;24.00;;;20.15;;
41663;SDS011;27353;50.906;7.248;2022-08-19T00:15:58;28.02;;;23.00;;
41663;SDS011;27353;50.906;7.248;2022-08-19T00:18:24;27.30;;;21.48;;
41663;SDS011;27353;50.906;7.248;2022-08-19T00:20:50;30.55;;;22.48;;
41663;SDS011;27353;50.906;7.248;2022-08-19T00:23:16;30.75;;;21.70;;
41663;SDS011;27353;50.906;7.248;2022-08-19T00:25:42;29.15;;;23.35;;
41663;SDS011;27353;50.906;7.248;2022-08-19T00:28:07;27.58;;;20.95;;
41663;SDS011;27353;50.906;7.248;2022-08-19T00:30:33;31.05;;;21.33;;
41663;SDS011;27353;50.906;7.248;2022-08-19T00:32:59;30.73;;;22.83;;
41663;SDS011;27353;50.906;7.248;2022-08-19T00:35:25;30.08;;;23.25;;
41663;SDS011;27353;50.906;7.248;2022-08-19T00:37:52;30.85;;;22.40;;
41663;SDS011;27353;50.906;7.248;2022-08-19T00:40:18;29.08;;;23.05;;
41663;SDS011;27353;50.906;7.248;2022-08-19T00:42:44;28.08;;;22.17;;
41663;SDS011;27353;50.906;7.248;2022-08-19T00:45:15;27.73;;;21.80;;
41663;SDS011;27353;50.906;7.248;2022-08-19T00:47:42;31.35;;;22.60;;
41663;SDS011;27353;50.906;7.248;2022-08-19T00:50:09;29.10;;;22.63;;
41663;SDS011;27353;50.906;7.248;2022-08-19T00:52:42;30.38;;;22.88;;
41663;SDS011;27353;50.906;7.248;2022-08-19T00:55:25;29.15;;;22.15;;
41663;SDS011;27353;50.906;7.248;2022-08-19T00:58:02;30.65;;;23.92;;
41663;SDS011;27353;50.906;7.248;2022-08-19T01:00:33;30.23;;;21.15;;
41663;SDS011;27353;50.906;7.248;2022-08-19T01:03:10;28.42;;;23.20;;
41663;SDS011;27353;50.906;7.248;2022-08-19T01:05:36;31.48;;;23.35;;
41663;SDS011;27353;50.906;7.248;2022-08-19T01:08:04;26.50;;;21.42;;
41663;SDS011;27353;50.906;7.248;2022-08-19T01:10:35;31.23;;;23.73;;
41663;SDS011;27353;50.906;7.248;2022-08-19T01:13:06;33.38;;;24.27;;
41663;SDS011;27353;50.906;7.248;2022-08-19T01:15:34;31.30;;;22.80;;
41663;SDS011;27353;50.906;7.248;2022-08-19T01:18:06;30.55;;;23.70;;
41663;SDS011;27353;50.906;7.248;2022-08-19T01:20:34;30.67;;;23.40;;
41663;SDS011;27353;50.906;7.248;2022-08-19T01:23:00;26.23;;;21.23;;
41663;SDS011;27353;50.906;7.248;2022-08-19T01:25:39;29.42;;;21.15;;
41663;SDS011;27353;50.906;7.248;2022-08-19T01:28:22;28.40;;;21.13;;
41663;SDS011;27353;50.906;7.248;2022-08-19T01:30:50;28.58;;;22.08;;
41663;SDS011;27353;50.906;7.248;2022-08-19T01:33:16;30.95;;;23.88;;
41663;SDS011;27353;50.906;7.248;2022-08-19T01:35:44;28.50;;;22.40;;
41663;SDS011;27353;50.906;7.248;2022-08-19T01:38:19;30.88;;;23.30;;
41663;SDS011;27353;50.906;7.248;2022-08-19T01:40:48;29.05;;;21.58;;
41663;SDS011;27353;50.906;7.248;2022-08-19T01:43:14;31.98;;;24.38;;
41663;SDS011;27353;50.906;7.248;2022-08-19T01:45:40;34.58;;;24.13;;
41663;SDS011;27353;50.906;7.248;2022-08-19T01:48:06;31.27;;;22.23;;
41663;SDS011;27353;50.906;7.248;2022-08-19T01:50:32;30.60;;;23.02;;
41663;SDS011;27353;50.906;7.248;2022-08-19T01:52:59;29.73;;;23.00;;
41663;SDS011;27353;50.906;7.248;2022-08-19T01:55:25;27.67;;;22.85;;
41663;SDS011;27353;50.906;7.248;2022-08-19T01:57:52;36.92;;;26.58;;
41663;SDS011;27353;50.906;7.248;2022-08-19T02:00:23;33.30;;;24.63;;
41663;SDS011;27353;50.906;7.248;2022-08-19T02:02:50;31.45;;;22.73;;
41663;SDS011;27353;50.906;7.248;2022-08-19T02:05:16;30.75;;;23.33;;
41663;SDS011;27353;50.906;7.248;2022-08-19T02:07:43;32.80;;;24.67;;
41663;SDS011;27353;50.906;7.248;2022-08-19T02:10:11;30.48;;;23.35;;
41663;SDS011;27353;50.906;7.248;2022-08-19T02:12:39;29.60;;;22.30;;
41663;SDS011;27353;50.906;7.248;2022-08-19T02:15:05;33.72;;;24.10;;
41663;SDS011;27353;50.906;7.248;2022-08-19T02:17:32;36.22;;;25.60;;
41663;SDS011;27353;50.906;7.248;2022-08-19T02:19:58;30.65;;;23.85;;
41663;SDS011;27353;50.906;7.248;2022-08-19T02:22:24;32.17;;;25.45;;
41663;SDS011;27353;50.906;7.248;2022-08-19T02:24:53;37.40;;;23.80;;
41663;SDS011;27353;50.906;7.248;2022-08-19T02:27:20;34.50;;;24.13;;
41663;SDS011;27353;50.906;7.248;2022-08-19T02:29:47;29.80;;;22.98;;
41663;SDS011;27353;50.906;7.248;2022-08-19T02:32:14;39.67;;;26.35;;
41663;SDS011;27353;50.906;7.248;2022-08-19T02:34:40;34.22;;;23.52;;
41663;SDS011;27353;50.906;7.248;2022-08-19T02:37:06;33.83;;;23.48;;
41663;SDS011;27353;50.906;7.248;2022-08-19T02:39:52;30.95;;;23.17;;
41663;SDS011;27353;50.906;7.248;2022-08-19T02:42:17;29.25;;;23.55;;
41663;SDS011;27353;50.906;7.248;2022-08-19T02:44:43;32.28;;;23.98;;
41663;SDS011;27353;50.906;7.248;2022-08-19T02:47:09;31.20;;;23.20;;
41663;SDS011;27353;50.906;7.248;2022-08-19T02:49:35;30.10;;;23.77;;
41663;SDS011;27353;50.906;7.248;2022-08-19T02:52:01;29.08;;;21.77;;
41663;SDS011;27353;50.906;7.248;2022-08-19T02:54:27;28.20;;;21.33;;
41663;SDS011;27353;50.906;7.248;2022-08-19T02:56:53;31.70;;;23.63;;
41663;SDS011;27353;50.906;7.248;2022-08-19T02:59:19;32.20;;;24.55;;
41663;SDS011;27353;50.906;7.248;2022-08-19T03:01:45;29.33;;;22.10;;
41663;SDS011;27353;50.906;7.248;2022-08-19T03:04:11;30.63;;;23.38;;
41663;SDS011;27353;50.906;7.248;2022-08-19T03:06:39;31.38;;;22.45;;
41663;SDS011;27353;50.906;7.248;2022-08-19T03:09:06;29.38;;;21.80;;
41663;SDS011;27353;50.906;7.248;2022-08-19T03:11:32;28.05;;;20.88;;
41663;SDS011;27353;50.906;7.248;2022-08-19T03:13:59;32.50;;;23.95;;
41663;SDS011;27353;50.906;7.248;2022-08-19T03:16:27;29.40;;;21.02;;
41663;SDS011;27353;50.906;7.248;2022-08-19T03:18:55;26.70;;;19.95;;
41663;SDS011;27353;50.906;7.248;2022-08-19T03:21:25;28.50;;;21.20;;
41663;SDS011;27353;50.906;7.248;2022-08-19T03:23:55;24.83;;;20.10;;
41663;SDS011;27353;50.906;7.248;2022-08-19T03:26:22;28.85;;;21.58;;
41663;SDS011;27353;50.906;7.248;2022-08-19T03:28:47;27.55;;;21.05;;
41663;SDS011;27353;50.906;7.248;2022-08-19T03:31:15;25.40;;;20.77;;
41663;SDS011;27353;50.906;7.248;2022-08-19T03:33:42;32.67;;;22.88;;
41663;SDS011;27353;50.906;7.248;2022-08-19T03:36:13;30.42;;;20.70;;
41663;SDS011;27353;50.906;7.248;2022-08-19T03:38:45;30.15;;;22.90;;
41663;SDS011;27353;50.906;7.248;2022-08-19T03:41:16;30.88;;;22.02;;
41663;SDS011;27353;50.906;7.248;2022-08-19T03:43:49;33.95;;;24.83;;
41663;SDS011;27353;50.906;7.248;2022-08-19T03:46:18;33.53;;;24.75;;
41663;SDS011;27353;50.906;7.248;2022-08-19T03:48:48;35.13;;;24.25;;
41663;SDS011;27353;50.906;7.248;2022-08-19T03:51:28;33.30;;;27.48;;
41663;SDS011;27353;50.906;7.248;2022-08-19T03:53:57;37.08;;;24.30;;
41663;SDS011;27353;50.906;7.248;2022-08-19T03:56:24;39.80;;;26.88;;
41663;SDS011;27353;50.906;7.248;2022-08-19T03:58:51;41.97;;;28.92;;
41663;SDS011;27353;50.906;7.248;2022-08-19T04:01:19;36.95;;;26.13;;
41663;SDS011;27353;50.906;7.248;2022-08-19T04:03:46;48.63;;;27.25;;
41663;SDS011;27353;50.906;7.248;2022-08-19T04:06:15;44.00;;;28.77;;
41663;SDS011;27353;50.906;7.248;2022-08-19T04:08:43;40.10;;;27.73;;
41663;SDS011;27353;50.906;7.248;2022-08-19T04:11:12;37.00;;;26.08;;
41663;SDS011;27353;50.906;7.248;2022-08-19T04:13:39;42.10;;;27.38;;
41663;SDS011;27353;50.906;7.248;2022-08-19T04:16:05;39.60;;;26.88;;
41663;SDS011;27353;50.906;7.248;2022-08-19T04:18:32;41.95;;;28.50;;
41663;SDS011;27353;50.906;7.248;2022-08-19T04:20:59;35.65;;;26.27;;
41663;SDS011;27353;50.906;7.248;2022-08-19T04:23:25;38.28;;;27.77;;
41663;SDS011;27353;50.906;7.248;2022-08-19T04:25:53;36.20;;;26.42;;
41663;SDS011;27353;50.906;7.248;2022-08-19T04:28:19;31.00;;;23.33;;
41663;SDS011;27353;50.906;7.248;2022-08-19T04:30:46;32.95;;;23.75;;
41663;SDS011;27353;50.906;7.248;2022-08-19T04:33:14;30.55;;;23.63;;
41663;SDS011;27353;50.906;7.248;2022-08-19T04:35:43;29.75;;;22.45;;
41663;SDS011;27353;50.906;7.248;2022-08-19T04:38:12;32.60;;;22.60;;
41663;SDS011;27353;50.906;7.248;2022-08-19T04:40:42;28.35;;;21.48;;
41663;SDS011;27353;50.906;7.248;2022-08-19T04:43:28;30.40;;;21.27;;
41663;SDS011;27353;50.906;7.248;2022-08-19T04:45:54;27.70;;;20.77;;
41663;SDS011;27353;50.906;7.248;2022-08-19T04:48:20;32.40;;;23.50;;
41663;SDS011;27353;50.906;7.248;2022-08-19T04:50:51;31.85;;;22.30;;
41663;SDS011;27353;50.906;7.248;2022-08-19T04:53:27;29.58;;;23.55;;
41663;SDS011;27353;50.906;7.248;2022-08-19T04:55:55;27.63;;;21.17;;
41663;SDS011;27353;50.906;7.248;2022-08-19T04:58:23;36.15;;;23.92;;
41663;SDS011;27353;50.906;7.248;2022-08-19T05:00:49;34.20;;;24.02;;
41663;SDS011;27353;50.906;7.248;2022-08-19T05:03:15;32.28;;;25.17;;
41663;SDS011;27353;50.906;7.248;2022-08-19T05:05:42;39.33;;;24.60;;
41663;SDS011;27353;50.906;7.248;2022-08-19T05:08:10;30.20;;;23.75;;
41663;SDS011;27353;50.906;7.248;2022-08-19T05:10:43;32.28;;;23.92;;
41663;SDS011;27353;50.906;7.248;2022-08-19T05:13:09;27.85;;;22.48;;
41663;SDS011;27353;50.906;7.248;2022-08-19T05:15:35;34.72;;;22.90;;
41663;SDS011;27353;50.906;7.248;2022-08-19T05:18:01;30.50;;;24.05;;
41663;SDS011;27353;50.906;7.248;2022-08-19T05:20:45;31.63;;;24.60;;
41663;SDS011;27353;50.906;7.248;2022-08-19T05:23:29;30.95;;;23.20;;
41663;SDS011;27353;50.906;7.248;2022-08-19T05:25:55;28.45;;;20.90;;
41663;SDS011;27353;50.906;7.248;2022-08-19T05:28:21;26.63;;;20.38;;
41663;SDS011;27353;50.906;7.248;2022-08-19T05:30:46;30.42;;;21.73;;
41663;SDS011;27353;50.906;7.248;2022-08-19T05:33:13;26.52;;;20.45;;
41663;SDS011;27353;50.906;7.248;2022-08-19T05:35:39;33.40;;;23.88;;
41663;SDS011;27353;50.906;7.248;2022-08-19T05:38:06;32.40;;;21.55;;
41663;SDS011;27353;50.906;7.248;2022-08-19T05:40:36;24.52;;;20.15;;
41663;SDS011;27353;50.906;7.248;2022-08-19T05:43:04;31.63;;;24.27;;
41663;SDS011;27353;50.906;7.248;2022-08-19T05:45:31;29.60;;;22.88;;
41663;SDS011;27353;50.906;7.248;2022-08-19T05:47:57;29.50;;;22.90;;
41663;SDS011;27353;50.906;7.248;2022-08-19T05:50:23;29.98;;;21.88;;
41663;SDS011;27353;50.906;7.248;2022-08-19T05:52:51;29.92;;;22.55;;
41663;SDS011;27353;50.906;7.248;2022-08-19T05:55:17;29.08;;;22.23;;
41663;SDS011;27353;50.906;7.248;2022-08-19T05:57:45;30.77;;;22.52;;
41663;SDS011;27353;50.906;7.248;2022-08-19T06:00:11;27.65;;;21.60;;
41663;SDS011;27353;50.906;7.248;2022-08-19T06:02:39;29.85;;;23.05;;
41663;SDS011;27353;50.906;7.248;2022-08-19T06:05:05;26.73;;;20.83;;
41663;SDS011;27353;50.906;7.248;2022-08-19T06:07:34;26.17;;;20.42;;
41663;SDS011;27353;50.906;7.248;2022-08-19T06:10:07;38.08;;;21.98;;
41663;SDS011;27353;50.906;7.248;2022-08-19T06:15:01;28.67;;;20.42;;
41663;SDS011;27353;50.906;7.248;2022-08-19T06:17:29;29.13;;;22.00;;
41663;SDS011;27353;50.906;7.248;2022-08-19T06:19:55;24.65;;;20.48;;
41663;SDS011;27353;50.906;7.248;2022-08-19T06:22:21;29.35;;;21.63;;
41663;SDS011;27353;50.906;7.248;2022-08-19T06:24:47;34.05;;;23.90;;
41663;SDS011;27353;50.906;7.248;2022-08-19T06:27:13;32.22;;;23.10;;
41663;SDS011;27353;50.906;7.248;2022-08-19T06:29:38;32.17;;;23.17;;
41663;SDS011;27353;50.906;7.248;2022-08-19T06:32:04;27.27;;;23.13;;
41663;SDS011;27353;50.906;7.248;2022-08-19T06:34:31;26.02;;;19.92;;
41663;SDS011;27353;50.906;7.248;2022-08-19T06:36:58;27.02;;;21.67;;
41663;SDS011;27353;50.906;7.248;2022-08-19T06:39:28;26.67;;;21.20;;
41663;SDS011;27353;50.906;7.248;2022-08-19T06:41:57;23.23;;;18.83;;
41663;SDS011;27353;50.906;7.248;2022-08-19T06:44:26;26.25;;;21.42;;
41663;SDS011;27353;50.906;7.248;2022-08-19T06:46:53;28.35;;;19.67;;
41663;SDS011;27353;50.906;7.248;2022-08-19T06:49:19;30.77;;;24.23;;
41663;SDS011;27353;50.906;7.248;2022-08-19T06:51:46;23.58;;;19.58;;
41663;SDS011;27353;50.906;7.248;2022-08-19T06:54:13;27.85;;;21.13;;
41663;SDS011;27353;50.906;7.248;2022-08-19T06:56:41;23.52;;;20.13;;
41663;SDS011;27353;50.906;7.248;2022-08-19T06:59:16;22.08;;;18.67;;
41663;SDS011;27353;50.906;7.248;2022-08-19T07:01:48;24.05;;;19.33;;
41663;SDS011;27353;50.906;7.248;2022-08-19T07:04:17;18.40;;;16.10;;
41663;SDS011;27353;50.906;7.248;2022-08-19T07:06:56;29.00;;;23.83;;
41663;SDS011;27353;50.906;7.248;2022-08-19T07:09:35;28.92;;;23.35;;
41663;SDS011;27353;50.906;7.248;2022-08-19T07:12:03;27.88;;;22.83;;
41663;SDS011;27353;50.906;7.248;2022-08-19T07:14:31;26.20;;;22.25;;
41663;SDS011;27353;50.906;7.248;2022-08-19T07:17:00;27.30;;;22.85;;
41663;SDS011;27353;50.906;7.248;2022-08-19T07:19:26;21.80;;;19.40;;
41663;SDS011;27353;50.906;7.248;2022-08-19T07:21:52;31.60;;;27.00;;
41663;SDS011;27353;50.906;7.248;2022-08-19T07:24:19;29.70;;;22.38;;
41663;SDS011;27353;50.906;7.248;2022-08-19T07:26:48;30.88;;;26.15;;
41663;SDS011;27353;50.906;7.248;2022-08-19T07:29:15;28.45;;;24.77;;
41663;SDS011;27353;50.906;7.248;2022-08-19T07:31:42;30.25;;;25.52;;
41663;SDS011;27353;50.906;7.248;2022-08-19T07:34:09;29.77;;;22.58;;
41663;SDS011;27353;50.906;7.248;2022-08-19T07:36:37;28.92;;;22.65;;
41663;SDS011;27353;50.906;7.248;2022-08-19T07:39:07;26.38;;;20.25;;
41663;SDS011;27353;50.906;7.248;2022-08-19T07:41:35;25.27;;;20.20;;
41663;SDS011;27353;50.906;7.248;2022-08-19T07:44:03;23.98;;;17.95;;
41663;SDS011;27353;50.906;7.248;2022-08-19T07:46:30;25.55;;;22.15;;
41663;SDS011;27353;50.906;7.248;2022-08-19T07:48:56;28.17;;;20.52;;
41663;SDS011;27353;50.906;7.248;2022-08-19T07:51:23;29.23;;;22.58;;
41663;SDS011;27353;50.906;7.248;2022-08-19T07:53:49;19.65;;;17.63;;
41663;SDS011;27353;50.906;7.248;2022-08-19T07:56:16;21.05;;;16.23;;
41663;SDS011;27353;50.906;7.248;2022-08-19T07:58:44;23.35;;;20.00;;
41663;SDS011;27353;50.906;7.248;2022-08-19T08:01:12;25.92;;;20.45;;
41663;SDS011;27353;50.906;7.248;2022-08-19T08:03:43;26.40;;;20.77;;
41663;SDS011;27353;50.906;7.248;2022-08-19T08:06:32;22.83;;;18.63;;
41663;SDS011;27353;50.906;7.248;2022-08-19T08:09:34;31.38;;;21.75;;
41663;SDS011;27353;50.906;7.248;2022-08-19T08:12:06;27.90;;;22.13;;
41663;SDS011;27353;50.906;7.248;2022-08-19T08:14:45;34.97;;;22.67;;
41663;SDS011;27353;50.906;7.248;2022-08-19T08:17:13;22.10;;;17.90;;
41663;SDS011;27353;50.906;7.248;2022-08-19T08:19:43;26.63;;;21.17;;
41663;SDS011;27353;50.906;7.248;2022-08-19T08:22:10;24.13;;;18.60;;
41663;SDS011;27353;50.906;7.248;2022-08-19T08:27:35;25.98;;;22.92;;
41663;SDS011;27353;50.906;7.248;2022-08-19T08:30:02;25.65;;;22.23;;
41663;SDS011;27353;50.906;7.248;2022-08-19T08:32:30;25.15;;;21.13;;
41663;SDS011;27353;50.906;7.248;2022-08-19T08:34:56;19.42;;;16.02;;
41663;SDS011;27353;50.906;7.248;2022-08-19T08:37:21;26.00;;;22.08;;
41663;SDS011;27353;50.906;7.248;2022-08-19T08:39:47;20.85;;;18.40;;
41663;SDS011;27353;50.906;7.248;2022-08-19T08:45:05;23.52;;;21.00;;
41663;SDS011;27353;50.906;7.248;2022-08-19T08:47:41;24.45;;;19.83;;
41663;SDS011;27353;50.906;7.248;2022-08-19T08:50:32;22.45;;;18.90;;
41663;SDS011;27353;50.906;7.248;2022-08-19T08:53:01;26.67;;;19.63;;
41663;SDS011;27353;50.906;7.248;2022-08-19T08:55:30;16.70;;;14.63;;
41663;SDS011;27353;50.906;7.248;2022-08-19T08:57:59;18.88;;;15.95;;
41663;SDS011;27353;50.906;7.248;2022-08-19T09:00:36;14.60;;;12.77;;
41663;SDS011;27353;50.906;7.248;2022-08-19T09:03:05;18.08;;;15.10;;
41663;SDS011;27353;50.906;7.248;2022-08-19T09:08:17;12.20;;;10.90;;
41663;SDS011;27353;50.906;7.248;2022-08-19T09:10:53;13.68;;;10.52;;
41663;SDS011;27353;50.906;7.248;2022-08-19T09:16:02;16.20;;;10.27;;
41663;SDS011;27353;50.906;7.248;2022-08-19T09:21:07;16.02;;;12.48;;
41663;SDS011;27353;50.906;7.248;2022-08-19T09:23:34;15.98;;;13.80;;
41663;SDS011;27353;50.906;7.248;2022-08-19T09:26:09;11.65;;;8.63;;
41663;SDS011;27353;50.906;7.248;2022-08-19T09:28:38;15.13;;;9.75;;
41663;SDS011;27353;50.906;7.248;2022-08-19T09:31:09;11.88;;;8.02;;
41663;SDS011;27353;50.906;7.248;2022-08-19T09:33:36;9.63;;;6.82;;
41663;SDS011;27353;50.906;7.248;2022-08-19T09:36:07;12.63;;;8.25;;
41663;SDS011;27353;50.906;7.248;2022-08-19T09:38:35;12.77;;;10.43;;
41663;SDS011;27353;50.906;7.248;2022-08-19T09:41:02;13.82;;;9.43;;
41663;SDS011;27353;50.906;7.248;2022-08-19T09:43:29;9.25;;;8.35;;
41663;SDS011;27353;50.906;7.248;2022-08-19T09:45:56;9.95;;;8.85;;
41663;SDS011;27353;50.906;7.248;2022-08-19T09:48:22;13.43;;;9.02;;
41663;SDS011;27353;50.906;7.248;2022-08-19T09:50:47;11.93;;;9.82;;
41663;SDS011;27353;50.906;7.248;2022-08-19T09:53:16;18.15;;;11.50;;
41663;SDS011;27353;50.906;7.248;2022-08-19T09:55:42;17.08;;;11.77;;
41663;SDS011;27353;50.906;7.248;2022-08-19T09:58:08;13.10;;;10.85;;
41663;SDS011;27353;50.906;7.248;2022-08-19T10:00:34;13.70;;;11.30;;
41663;SDS011;27353;50.906;7.248;2022-08-19T10:03:02;15.45;;;12.98;;
41663;SDS011;27353;50.906;7.248;2022-08-19T10:05:28;14.63;;;12.27;;
41663;SDS011;27353;50.906;7.248;2022-08-19T10:08:12;17.70;;;14.10;;
41663;SDS011;27353;50.906;7.248;2022-08-19T10:10:39;17.27;;;13.05;;
41663;SDS011;27353;50.906;7.248;2022-08-19T10:13:08;17.77;;;14.70;;
41663;SDS011;27353;50.906;7.248;2022-08-19T10:15:34;16.77;;;12.07;;
41663;SDS011;27353;50.906;7.248;2022-08-19T10:18:00;23.48;;;17.30;;
41663;SDS011;27353;50.906;7.248;2022-08-19T10:20:26;21.50;;;15.65;;
41663;SDS011;27353;50.906;7.248;2022-08-19T10:22:51;18.67;;;15.15;;
41663;SDS011;27353;50.906;7.248;2022-08-19T10:25:17;18.83;;;15.05;;
41663;SDS011;27353;50.906;7.248;2022-08-19T10:27:43;19.60;;;15.88;;
41663;SDS011;27353;50.906;7.248;2022-08-19T10:30:09;24.73;;;18.95;;
41663;SDS011;27353;50.906;7.248;2022-08-19T10:32:35;16.85;;;15.05;;
41663;SDS011;27353;50.906;7.248;2022-08-19T10:35:01;21.80;;;16.52;;
41663;SDS011;27353;50.906;7.248;2022-08-19T10:37:30;19.90;;;16.67;;
41663;SDS011;27353;50.906;7.248;2022-08-19T10:39:56;16.67;;;14.88;;
41663;SDS011;27353;50.906;7.248;2022-08-19T10:42:22;18.05;;;14.45;;
41663;SDS011;27353;50.906;7.248;2022-08-19T10:44:47;19.73;;;14.88;;
41663;SDS011;27353;50.906;7.248;2022-08-19T10:47:13;17.90;;;15.95;;
41663;SDS011;27353;50.906;7.248;2022-08-19T10:49:39;22.02;;;17.65;;
41663;SDS011;27353;50.906;7.248;2022-08-19T10:52:25;21.17;;;16.02;;
41663;SDS011;27353;50.906;7.248;2022-08-19T10:55:00;20.98;;;17.00;;
41663;SDS011;27353;50.906;7.248;2022-08-19T10:57:45;28.02;;;19.30;;
41663;SDS011;27353;50.906;7.248;2022-08-19T11:00:11;24.55;;;18.70;;
41663;SDS011;27353;50.906;7.248;2022-08-19T11:02:38;16.92;;;13.93;;
41663;SDS011;27353;50.906;7.248;2022-08-19T11:05:04;20.42;;;16.50;;
41663;SDS011;27353;50.906;7.248;2022-08-19T11:07:31;19.58;;;15.48;;
41663;SDS011;27353;50.906;7.248;2022-08-19T11:09:57;19.00;;;14.25;;
41663;SDS011;27353;50.906;7.248;2022-08-19T11:12:23;19.40;;;14.98;;
41663;SDS011;27353;50.906;7.248;2022-08-19T11:14:49;17.80;;;13.00;;
41663;SDS011;27353;50.906;7.248;2022-08-19T11:17:15;14.40;;;10.98;;
41663;SDS011;27353;50.906;7.248;2022-08-19T11:19:40;13.02;;;10.32;;
41663;SDS011;27353;50.906;7.248;2022-08-19T11:22:07;14.70;;;12.93;;
41663;SDS011;27353;50.906;7.248;2022-08-19T11:24:34;11.73;;;10.52;;
41663;SDS011;27353;50.906;7.248;2022-08-19T11:27:02;17.67;;;13.57;;
41663;SDS011;27353;50.906;7.248;2022-08-19T11:29:29;13.02;;;11.43;;
41663;SDS011;27353;50.906;7.248;2022-08-19T11:31:56;14.35;;;11.00;;
41663;SDS011;27353;50.906;7.248;2022-08-19T11:34:23;17.50;;;13.05;;
41663;SDS011;27353;50.906;7.248;2022-08-19T11:36:52;14.95;;;11.68;;
41663;SDS011;27353;50.906;7.248;2022-08-19T11:39:20;12.15;;;10.63;;
41663;SDS011;27353;50.906;7.248;2022-08-19T11:41:46;13.60;;;10.73;;
41663;SDS011;27353;50.906;7.248;2022-08-19T11:44:12;14.20;;;12.80;;
41663;SDS011;27353;50.906;7.248;2022-08-19T11:46:39;12.93;;;11.45;;
41663;SDS011;27353;50.906;7.248;2022-08-19T11:49:06;11.70;;;9.32;;
41663;SDS011;27353;50.906;7.248;2022-08-19T11:51:35;16.30;;;11.95;;
41663;SDS011;27353;50.906;7.248;2022-08-19T11:54:01;17.05;;;13.32;;
41663;SDS011;27353;50.906;7.248;2022-08-19T11:56:29;15.43;;;11.57;;
41663;SDS011;27353;50.906;7.248;2022-08-19T11:58:54;11.98;;;10.77;;
41663;SDS011;27353;50.906;7.248;2022-08-19T12:01:22;15.60;;;13.55;;
41663;SDS011;27353;50.906;7.248;2022-08-19T12:03:49;15.55;;;10.95;;
41663;SDS011;27353;50.906;7.248;2022-08-19T12:06:18;14.25;;;11.57;;
41663;SDS011;27353;50.906;7.248;2022-08-19T12:08:48;17.60;;;10.77;;
41663;SDS011;27353;50.906;7.248;2022-08-19T12:11:13;12.88;;;11.05;;
41663;SDS011;27353;50.906;7.248;2022-08-19T12:13:39;11.90;;;10.70;;
41663;SDS011;27353;50.906;7.248;2022-08-19T12:16:07;16.67;;;10.63;;
41663;SDS011;27353;50.906;7.248;2022-08-19T12:18:36;15.35;;;11.27;;
41663;SDS011;27353;50.906;7.248;2022-08-19T12:21:02;12.30;;;10.77;;
41663;SDS011;27353;50.906;7.248;2022-08-19T12:23:28;12.73;;;10.13;;
41663;SDS011;27353;50.906;7.248;2022-08-19T12:25:54;12.13;;;10.88;;
41663;SDS011;27353;50.906;7.248;2022-08-19T12:28:23;12.40;;;9.82;;
41663;SDS011;27353;50.906;7.248;2022-08-19T12:30:50;13.68;;;11.45;;
41663;SDS011;27353;50.906;7.248;2022-08-19T12:33:17;13.80;;;11.45;;
41663;SDS011;27353;50.906;7.248;2022-08-19T12:35:44;13.27;;;10.98;;
41663;SDS011;27353;50.906;7.248;2022-08-19T12:38:11;14.80;;;9.88;;
41663;SDS011;27353;50.906;7.248;2022-08-19T12:40:38;12.63;;;10.05;;
41663;SDS011;27353;50.906;7.248;2022-08-19T12:43:05;24.35;;;12.02;;
41663;SDS011;27353;50.906;7.248;2022-08-19T12:45:31;11.68;;;9.32;;
41663;SDS011;27353;50.906;7.248;2022-08-19T12:47:57;10.30;;;8.25;;
41663;SDS011;27353;50.906;7.248;2022-08-19T12:50:22;10.65;;;9.35;;
41663;SDS011;27353;50.906;7.248;2022-08-19T12:52:48;12.88;;;11.23;;
41663;SDS011;27353;50.906;7.248;2022-08-19T12:55:14;9.93;;;8.93;;
41663;SDS011;27353;50.906;7.248;2022-08-19T12:57:39;10.73;;;8.98;;
41663;SDS011;27353;50.906;7.248;2022-08-19T13:02:41;10.82;;;8.63;;
41663;SDS011;27353;50.906;7.248;2022-08-19T13:05:12;12.23;;;8.73;;
41663;SDS011;27353;50.906;7.248;2022-08-19T13:07:41;9.40;;;8.07;;
41663;SDS011;27353;50.906;7.248;2022-08-19T13:10:10;10.73;;;9.63;;
41663;SDS011;27353;50.906;7.248;2022-08-19T13:12:37;11.73;;;10.32;;
41663;SDS011;27353;50.906;7.248;2022-08-19T13:15:04;10.57;;;9.55;;
41663;SDS011;27353;50.906;7.248;2022-08-19T13:17:30;10.45;;;8.60;;
41663;SDS011;27353;50.906;7.248;2022-08-19T13:19:55;9.93;;;7.78;;
41663;SDS011;27353;50.906;7.248;2022-08-19T13:22:21;9.65;;;8.38;;
41663;SDS011;27353;50.906;7.248;2022-08-19T13:24:46;10.15;;;7.75;;
41663;SDS011;27353;50.906;7.248;2022-08-19T13:27:13;8.30;;;7.40;;
41663;SDS011;27353;50.906;7.248;2022-08-19T13:29:39;10.48;;;7.20;;
41663;SDS011;27353;50.906;7.248;2022-08-19T13:32:24;9.52;;;8.50;;
41663;SDS011;27353;50.906;7.248;2022-08-19T13:35:08;8.73;;;7.82;;
41663;SDS011;27353;50.906;7.248;2022-08-19T13:37:34;10.63;;;7.95;;
41663;SDS011;27353;50.906;7.248;2022-08-19T13:40:17;10.23;;;6.95;;
41663;SDS011;27353;50.906;7.248;2022-08-19T13:42:46;9.82;;;7.50;;
41663;SDS011;27353;50.906;7.248;2022-08-19T13:45:14;10.32;;;6.80;;
41663;SDS011;27353;50.906;7.248;2022-08-19T13:47:44;9.98;;;7.97;;
41663;SDS011;27353;50.906;7.248;2022-08-19T13:50:12;9.60;;;7.03;;
41663;SDS011;27353;50.906;7.248;2022-08-19T13:52:40;8.75;;;7.88;;
41663;SDS011;27353;50.906;7.248;2022-08-19T13:55:06;13.30;;;9.38;;
41663;SDS011;27353;50.906;7.248;2022-08-19T13:57:33;11.15;;;9.00;;
41663;SDS011;27353;50.906;7.248;2022-08-19T14:00:00;11.90;;;9.32;;
41663;SDS011;27353;50.906;7.248;2022-08-19T14:02:28;12.70;;;9.23;;
41663;SDS011;27353;50.906;7.248;2022-08-19T14:04:54;11.10;;;9.32;;
41663;SDS011;27353;50.906;7.248;2022-08-19T14:07:19;10.75;;;8.40;;
41663;SDS011;27353;50.906;7.248;2022-08-19T14:09:46;10.90;;;7.60;;
41663;SDS011;27353;50.906;7.248;2022-08-19T14:12:12;8.68;;;7.72;;
41663;SDS011;27353;50.906;7.248;2022-08-19T14:14:38;9.88;;;7.78;;
41663;SDS011;27353;50.906;7.248;2022-08-19T14:17:07;8.68;;;7.30;;
41663;SDS011;27353;50.906;7.248;2022-08-19T14:19:34;11.63;;;7.18;;
41663;SDS011;27353;50.906;7.248;2022-08-19T14:22:00;9.93;;;7.15;;
41663;SDS011;27353;50.906;7.248;2022-08-19T14:24:25;11.07;;;7.82;;
41663;SDS011;27353;50.906;7.248;2022-08-19T14:26:52;12.43;;;7.53;;
41663;SDS011;27353;50.906;7.248;2022-08-19T14:29:17;13.02;;;7.97;;
41663;SDS011;27353;50.906;7.248;2022-08-19T14:31:43;11.43;;;9.02;;
41663;SDS011;27353;50.906;7.248;2022-08-19T14:34:09;8.15;;;6.13;;
41663;SDS011;27353;50.906;7.248;2022-08-19T14:36:36;8.15;;;6.15;;
41663;SDS011;27353;50.906;7.248;2022-08-19T14:39:02;7.70;;;6.90;;
41663;SDS011;27353;50.906;7.248;2022-08-19T14:41:29;8.20;;;6.95;;
41663;SDS011;27353;50.906;7.248;2022-08-19T14:43:58;8.63;;;7.72;;
41663;SDS011;27353;50.906;7.248;2022-08-19T14:46:26;12.35;;;8.25;;
41663;SDS011;27353;50.906;7.248;2022-08-19T14:48:53;14.82;;;8.23;;